sensor_id;sensor_type;location;lat;lon;timestamp;temperature;humidity
21487;DHT22;10905;50.822;4.336;2022-07-23T00:01:26;18.90;99.90
21487;DHT22;10905;50.822;4.336;2022-07-23T00:03:52;18.80;99.90
21487;DHT22;10905;50.822;4.336;2022-07-23T00:06:19;18.80;99.90
21487;DHT22;10905;50.822;4.336;2022-07-23T00:08:45;18.60;99.90
21487;DHT22;10905;50.822;4.336;2022-07-23T00:11:10;18.70;99.90
21487;DHT22;10905;50.822;4.336;2022-07-23T00:13:36;18.70;99.90
21487;DHT22;10905;50.822;4.336;2022-07-23T00:16:01;18.60;99.90
21487;DHT22;10905;50.822;4.336;2022-07-23T00:18:27;18.70;99.90
21487;DHT22;10905;50.822;4.336;2022-07-23T00:20:52;18.70;99.90
21487;DHT22;10905;50.822;4.336;2022-07-23T00:23:18;18.70;99.90
21487;DHT22;10905;50.822;4.336;2022-07-23T00:25:43;18.70;99.90
21487;DHT22;10905;50.822;4.336;2022-07-23T00:28:10;18.60;99.90
21487;DHT22;10905;50.822;4.336;2022-07-23T00:30:36;18.60;99.90
21487;DHT22;10905;50.822;4.336;2022-07-23T00:33:02;18.40;99.90
21487;DHT22;10905;50.822;4.336;2022-07-23T00:35:30;18.50;99.90
21487;DHT22;10905;50.822;4.336;2022-07-23T00:37:55;18.40;99.90
21487;DHT22;10905;50.822;4.336;2022-07-23T00:40:21;18.40;99.90
21487;DHT22;10905;50.822;4.336;2022-07-23T00:42:47;18.60;99.90
21487;DHT22;10905;50.822;4.336;2022-07-23T00:45:12;18.50;99.90
21487;DHT22;10905;50.822;4.336;2022-07-23T00:47:38;18.50;99.90
21487;DHT22;10905;50.822;4.336;2022-07-23T00:50:04;18.50;99.90
21487;DHT22;10905;50.822;4.336;2022-07-23T00:52:31;18.50;99.90
21487;DHT22;10905;50.822;4.336;2022-07-23T00:54:56;18.60;99.90
21487;DHT22;10905;50.822;4.336;2022-07-23T00:57:22;18.50;99.90
21487;DHT22;10905;50.822;4.336;2022-07-23T00:59:47;18.40;99.90
21487;DHT22;10905;50.822;4.336;2022-07-23T01:02:13;18.40;99.90
21487;DHT22;10905;50.822;4.336;2022-07-23T01:04:38;18.40;99.90
21487;DHT22;10905;50.822;4.336;2022-07-23T01:07:04;18.30;99.90
21487;DHT22;10905;50.822;4.336;2022-07-23T01:09:30;18.40;99.90
21487;DHT22;10905;50.822;4.336;2022-07-23T01:11:56;18.30;99.90
21487;DHT22;10905;50.822;4.336;2022-07-23T01:14:22;18.40;99.90
21487;DHT22;10905;50.822;4.336;2022-07-23T01:16:48;18.40;99.90
21487;DHT22;10905;50.822;4.336;2022-07-23T01:19:14;18.40;99.90
21487;DHT22;10905;50.822;4.336;2022-07-23T01:21:41;18.40;99.90
21487;DHT22;10905;50.822;4.336;2022-07-23T01:24:07;18.40;99.90
21487;DHT22;10905;50.822;4.336;2022-07-23T01:26:33;18.30;99.90
21487;DHT22;10905;50.822;4.336;2022-07-23T01:28:58;18.30;99.90
21487;DHT22;10905;50.822;4.336;2022-07-23T01:31:24;18.20;99.90
21487;DHT22;10905;50.822;4.336;2022-07-23T01:33:50;18.20;99.90
21487;DHT22;10905;50.822;4.336;2022-07-23T01:36:15;18.20;99.90
21487;DHT22;10905;50.822;4.336;2022-07-23T01:38:41;18.20;99.90
21487;DHT22;10905;50.822;4.336;2022-07-23T01:41:06;18.20;99.90
21487;DHT22;10905;50.822;4.336;2022-07-23T01:43:32;18.30;99.90
21487;DHT22;10905;50.822;4.336;2022-07-23T01:45:57;18.30;99.90
21487;DHT22;10905;50.822;4.336;2022-07-23T01:48:23;18.20;99.90
21487;DHT22;10905;50.822;4.336;2022-07-23T01:50:48;18.20;99.90
21487;DHT22;10905;50.822;4.336;2022-07-23T01:53:14;18.10;99.90
21487;DHT22;10905;50.822;4.336;2022-07-23T01:55:40;18.10;99.90
21487;DHT22;10905;50.822;4.336;2022-07-23T01:58:05;18.10;99.90
21487;DHT22;10905;50.822;4.336;2022-07-23T02:00:31;18.00;99.90
21487;DHT22;10905;50.822;4.336;2022-07-23T02:02:57;18.10;99.90
21487;DHT22;10905;50.822;4.336;2022-07-23T02:05:25;18.10;99.90
21487;DHT22;10905;50.822;4.336;2022-07-23T02:07:51;18.00;99.90
21487;DHT22;10905;50.822;4.336;2022-07-23T02:10:17;18.00;99.90
21487;DHT22;10905;50.822;4.336;2022-07-23T02:12:43;18.00;99.90
21487;DHT22;10905;50.822;4.336;2022-07-23T02:15:08;18.00;99.90
21487;DHT22;10905;50.822;4.336;2022-07-23T02:17:34;17.90;99.90
21487;DHT22;10905;50.822;4.336;2022-07-23T02:19:59;17.80;99.90
21487;DHT22;10905;50.822;4.336;2022-07-23T02:22:25;17.70;99.90
21487;DHT22;10905;50.822;4.336;2022-07-23T02:24:50;17.70;99.90
21487;DHT22;10905;50.822;4.336;2022-07-23T02:27:16;17.70;99.90
21487;DHT22;10905;50.822;4.336;2022-07-23T02:29:41;17.70;99.90
21487;DHT22;10905;50.822;4.336;2022-07-23T02:32:07;17.60;99.90
21487;DHT22;10905;50.822;4.336;2022-07-23T02:34:32;17.60;99.90
21487;DHT22;10905;50.822;4.336;2022-07-23T02:36:58;17.70;99.90
21487;DHT22;10905;50.822;4.336;2022-07-23T02:39:23;17.80;99.90
21487;DHT22;10905;50.822;4.336;2022-07-23T02:41:49;17.80;99.90
21487;DHT22;10905;50.822;4.336;2022-07-23T02:44:14;17.70;99.90
21487;DHT22;10905;50.822;4.336;2022-07-23T02:46:40;17.60;99.90
21487;DHT22;10905;50.822;4.336;2022-07-23T02:49:05;17.60;99.90
21487;DHT22;10905;50.822;4.336;2022-07-23T02:51:31;17.50;99.90
21487;DHT22;10905;50.822;4.336;2022-07-23T02:53:56;17.60;99.90
21487;DHT22;10905;50.822;4.336;2022-07-23T02:56:22;17.70;99.90
21487;DHT22;10905;50.822;4.336;2022-07-23T02:58:47;17.70;99.90
21487;DHT22;10905;50.822;4.336;2022-07-23T03:01:13;17.60;99.90
21487;DHT22;10905;50.822;4.336;2022-07-23T03:03:38;17.80;99.90
21487;DHT22;10905;50.822;4.336;2022-07-23T03:06:06;17.80;99.90
21487;DHT22;10905;50.822;4.336;2022-07-23T03:08:31;17.70;99.90
21487;DHT22;10905;50.822;4.336;2022-07-23T03:10:57;17.80;99.90
21487;DHT22;10905;50.822;4.336;2022-07-23T03:13:22;17.80;99.90
21487;DHT22;10905;50.822;4.336;2022-07-23T03:15:48;17.70;99.90
21487;DHT22;10905;50.822;4.336;2022-07-23T03:18:14;17.70;99.90
21487;DHT22;10905;50.822;4.336;2022-07-23T03:20:39;17.70;99.90
21487;DHT22;10905;50.822;4.336;2022-07-23T03:23:05;17.70;99.90
21487;DHT22;10905;50.822;4.336;2022-07-23T03:25:30;17.60;99.90
21487;DHT22;10905;50.822;4.336;2022-07-23T03:27:56;17.50;99.90
21487;DHT22;10905;50.822;4.336;2022-07-23T03:30:21;17.40;99.90
21487;DHT22;10905;50.822;4.336;2022-07-23T03:32:47;17.40;99.90
21487;DHT22;10905;50.822;4.336;2022-07-23T03:35:13;17.40;99.90
21487;DHT22;10905;50.822;4.336;2022-07-23T03:37:38;17.30;99.90
21487;DHT22;10905;50.822;4.336;2022-07-23T03:40:04;17.40;99.90
21487;DHT22;10905;50.822;4.336;2022-07-23T03:42:30;17.50;99.90
21487;DHT22;10905;50.822;4.336;2022-07-23T03:44:56;17.60;99.90
21487;DHT22;10905;50.822;4.336;2022-07-23T03:47:21;17.60;99.90
21487;DHT22;10905;50.822;4.336;2022-07-23T03:49:50;17.70;99.90
21487;DHT22;10905;50.822;4.336;2022-07-23T03:52:15;17.70;99.90
21487;DHT22;10905;50.822;4.336;2022-07-23T03:54:41;17.70;99.90
21487;DHT22;10905;50.822;4.336;2022-07-23T03:57:06;17.70;99.90
21487;DHT22;10905;50.822;4.336;2022-07-23T03:59:32;17.80;99.90
21487;DHT22;10905;50.822;4.336;2022-07-23T04:01:57;17.70;99.90
21487;DHT22;10905;50.822;4.336;2022-07-23T04:04:23;17.70;99.90
21487;DHT22;10905;50.822;4.336;2022-07-23T04:06:48;17.70;99.90
21487;DHT22;10905;50.822;4.336;2022-07-23T04:09:14;17.70;99.90
21487;DHT22;10905;50.822;4.336;2022-07-23T04:11:39;17.70;99.90
21487;DHT22;10905;50.822;4.336;2022-07-23T04:14:05;17.60;99.90
21487;DHT22;10905;50.822;4.336;2022-07-23T04:16:31;17.70;99.90
21487;DHT22;10905;50.822;4.336;2022-07-23T04:18:56;17.80;99.90
21487;DHT22;10905;50.822;4.336;2022-07-23T04:21:22;17.80;99.90
21487;DHT22;10905;50.822;4.336;2022-07-23T04:23:48;17.70;99.90
21487;DHT22;10905;50.822;4.336;2022-07-23T04:26:14;17.70;99.90
21487;DHT22;10905;50.822;4.336;2022-07-23T04:28:39;17.70;99.90
21487;DHT22;10905;50.822;4.336;2022-07-23T04:31:05;17.70;99.90
21487;DHT22;10905;50.822;4.336;2022-07-23T04:33:30;17.70;99.90
21487;DHT22;10905;50.822;4.336;2022-07-23T04:35:56;17.70;99.90
21487;DHT22;10905;50.822;4.336;2022-07-23T04:38:21;17.70;99.90
21487;DHT22;10905;50.822;4.336;2022-07-23T04:40:47;17.90;99.90
21487;DHT22;10905;50.822;4.336;2022-07-23T04:43:12;17.90;99.90
21487;DHT22;10905;50.822;4.336;2022-07-23T04:45:38;18.00;99.90
21487;DHT22;10905;50.822;4.336;2022-07-23T04:48:03;18.00;99.90
21487;DHT22;10905;50.822;4.336;2022-07-23T04:50:29;18.10;99.90
21487;DHT22;10905;50.822;4.336;2022-07-23T04:52:54;18.00;99.90
21487;DHT22;10905;50.822;4.336;2022-07-23T04:55:20;18.00;99.90
21487;DHT22;10905;50.822;4.336;2022-07-23T04:57:45;17.90;99.90
21487;DHT22;10905;50.822;4.336;2022-07-23T05:00:11;17.90;99.90
21487;DHT22;10905;50.822;4.336;2022-07-23T05:02:37;17.90;99.90
21487;DHT22;10905;50.822;4.336;2022-07-23T05:05:02;17.90;99.90
21487;DHT22;10905;50.822;4.336;2022-07-23T05:07:28;18.00;99.90
21487;DHT22;10905;50.822;4.336;2022-07-23T05:09:53;18.10;99.90
21487;DHT22;10905;50.822;4.336;2022-07-23T05:12:19;18.10;99.90
21487;DHT22;10905;50.822;4.336;2022-07-23T05:14:44;18.10;99.90
21487;DHT22;10905;50.822;4.336;2022-07-23T05:17:10;18.30;99.90
21487;DHT22;10905;50.822;4.336;2022-07-23T05:19:35;18.30;99.90
21487;DHT22;10905;50.822;4.336;2022-07-23T05:22:01;18.50;99.90
21487;DHT22;10905;50.822;4.336;2022-07-23T05:24:27;18.50;99.90
21487;DHT22;10905;50.822;4.336;2022-07-23T05:26:52;18.70;99.90
21487;DHT22;10905;50.822;4.336;2022-07-23T05:29:18;18.60;99.90
21487;DHT22;10905;50.822;4.336;2022-07-23T05:31:43;18.70;99.90
21487;DHT22;10905;50.822;4.336;2022-07-23T05:34:09;18.70;99.90
21487;DHT22;10905;50.822;4.336;2022-07-23T05:36:34;18.70;99.90
21487;DHT22;10905;50.822;4.336;2022-07-23T05:39:00;18.60;99.90
21487;DHT22;10905;50.822;4.336;2022-07-23T05:41:25;18.60;99.90
21487;DHT22;10905;50.822;4.336;2022-07-23T05:43:51;18.70;99.90
21487;DHT22;10905;50.822;4.336;2022-07-23T05:46:17;18.60;99.90
21487;DHT22;10905;50.822;4.336;2022-07-23T05:48:42;18.50;99.90
21487;DHT22;10905;50.822;4.336;2022-07-23T05:51:08;18.50;99.90
21487;DHT22;10905;50.822;4.336;2022-07-23T05:53:34;18.40;99.90
21487;DHT22;10905;50.822;4.336;2022-07-23T05:56:00;18.60;99.90
21487;DHT22;10905;50.822;4.336;2022-07-23T05:58:25;18.60;99.90
21487;DHT22;10905;50.822;4.336;2022-07-23T06:00:51;18.60;99.90
21487;DHT22;10905;50.822;4.336;2022-07-23T06:03:16;18.90;99.90
21487;DHT22;10905;50.822;4.336;2022-07-23T06:05:42;18.90;99.90
21487;DHT22;10905;50.822;4.336;2022-07-23T06:08:08;18.90;99.90
21487;DHT22;10905;50.822;4.336;2022-07-23T06:10:33;19.00;99.90
21487;DHT22;10905;50.822;4.336;2022-07-23T06:12:59;19.10;99.90
21487;DHT22;10905;50.822;4.336;2022-07-23T06:15:24;19.10;99.90
21487;DHT22;10905;50.822;4.336;2022-07-23T06:17:50;19.20;99.90
21487;DHT22;10905;50.822;4.336;2022-07-23T06:20:15;19.30;99.90
21487;DHT22;10905;50.822;4.336;2022-07-23T06:22:41;19.20;99.90
21487;DHT22;10905;50.822;4.336;2022-07-23T06:25:07;19.30;99.90
21487;DHT22;10905;50.822;4.336;2022-07-23T06:27:33;19.30;99.90
21487;DHT22;10905;50.822;4.336;2022-07-23T06:29:58;19.30;99.90
21487;DHT22;10905;50.822;4.336;2022-07-23T06:32:23;19.30;99.90
21487;DHT22;10905;50.822;4.336;2022-07-23T06:34:49;19.40;99.90
21487;DHT22;10905;50.822;4.336;2022-07-23T06:37:15;19.30;99.90
21487;DHT22;10905;50.822;4.336;2022-07-23T06:39:40;19.30;99.90
21487;DHT22;10905;50.822;4.336;2022-07-23T06:42:06;19.20;99.90
21487;DHT22;10905;50.822;4.336;2022-07-23T06:44:31;19.20;99.90
21487;DHT22;10905;50.822;4.336;2022-07-23T06:46:57;19.20;99.90
21487;DHT22;10905;50.822;4.336;2022-07-23T06:49:22;19.40;99.90
21487;DHT22;10905;50.822;4.336;2022-07-23T06:51:48;19.50;99.90
21487;DHT22;10905;50.822;4.336;2022-07-23T06:54:14;19.50;99.90
21487;DHT22;10905;50.822;4.336;2022-07-23T06:56:39;19.70;99.90
21487;DHT22;10905;50.822;4.336;2022-07-23T06:59:05;19.70;99.90
21487;DHT22;10905;50.822;4.336;2022-07-23T07:01:30;19.70;99.90
21487;DHT22;10905;50.822;4.336;2022-07-23T07:03:56;19.80;99.90
21487;DHT22;10905;50.822;4.336;2022-07-23T07:06:21;20.00;99.90
21487;DHT22;10905;50.822;4.336;2022-07-23T07:08:47;20.10;99.90
21487;DHT22;10905;50.822;4.336;2022-07-23T07:11:12;20.10;99.90
21487;DHT22;10905;50.822;4.336;2022-07-23T07:13:38;20.10;99.90
21487;DHT22;10905;50.822;4.336;2022-07-23T07:16:04;20.10;99.90
21487;DHT22;10905;50.822;4.336;2022-07-23T07:18:29;20.20;99.90
21487;DHT22;10905;50.822;4.336;2022-07-23T07:20:56;20.30;99.90
21487;DHT22;10905;50.822;4.336;2022-07-23T07:23:22;20.40;99.90
21487;DHT22;10905;50.822;4.336;2022-07-23T07:25:47;20.50;99.90
21487;DHT22;10905;50.822;4.336;2022-07-23T07:28:13;20.60;99.90
21487;DHT22;10905;50.822;4.336;2022-07-23T07:30:38;20.60;99.90
21487;DHT22;10905;50.822;4.336;2022-07-23T07:33:04;20.60;99.90
21487;DHT22;10905;50.822;4.336;2022-07-23T07:35:30;20.70;99.90
21487;DHT22;10905;50.822;4.336;2022-07-23T07:37:58;20.60;99.90
21487;DHT22;10905;50.822;4.336;2022-07-23T07:40:24;20.60;99.90
21487;DHT22;10905;50.822;4.336;2022-07-23T07:42:50;20.60;99.90
21487;DHT22;10905;50.822;4.336;2022-07-23T07:45:16;20.70;99.90
21487;DHT22;10905;50.822;4.336;2022-07-23T07:47:42;20.90;99.90
21487;DHT22;10905;50.822;4.336;2022-07-23T07:50:08;20.90;99.90
21487;DHT22;10905;50.822;4.336;2022-07-23T07:52:34;21.00;99.90
21487;DHT22;10905;50.822;4.336;2022-07-23T07:55:02;21.00;99.90
21487;DHT22;10905;50.822;4.336;2022-07-23T07:57:28;21.10;99.90
21487;DHT22;10905;50.822;4.336;2022-07-23T07:59:53;21.10;99.90
21487;DHT22;10905;50.822;4.336;2022-07-23T08:02:19;21.10;99.90
21487;DHT22;10905;50.822;4.336;2022-07-23T08:04:44;21.10;99.90
21487;DHT22;10905;50.822;4.336;2022-07-23T08:07:10;21.10;99.90
21487;DHT22;10905;50.822;4.336;2022-07-23T08:09:35;21.20;99.90
21487;DHT22;10905;50.822;4.336;2022-07-23T08:12:01;21.20;99.90
21487;DHT22;10905;50.822;4.336;2022-07-23T08:14:26;21.30;99.90
21487;DHT22;10905;50.822;4.336;2022-07-23T08:16:52;21.40;99.90
21487;DHT22;10905;50.822;4.336;2022-07-23T08:19:17;21.60;99.90
21487;DHT22;10905;50.822;4.336;2022-07-23T08:21:43;21.50;99.90
21487;DHT22;10905;50.822;4.336;2022-07-23T08:24:08;21.40;99.90
21487;DHT22;10905;50.822;4.336;2022-07-23T08:26:34;21.50;99.90
21487;DHT22;10905;50.822;4.336;2022-07-23T08:28:59;21.70;99.90
21487;DHT22;10905;50.822;4.336;2022-07-23T08:31:25;21.80;99.90
21487;DHT22;10905;50.822;4.336;2022-07-23T08:33:50;21.60;99.90
21487;DHT22;10905;50.822;4.336;2022-07-23T08:36:17;21.90;99.90
21487;DHT22;10905;50.822;4.336;2022-07-23T08:38:43;21.90;99.90
21487;DHT22;10905;50.822;4.336;2022-07-23T08:41:08;22.20;99.90
21487;DHT22;10905;50.822;4.336;2022-07-23T08:43:34;22.10;99.90
21487;DHT22;10905;50.822;4.336;2022-07-23T08:46:01;22.10;99.90
21487;DHT22;10905;50.822;4.336;2022-07-23T08:48:29;22.10;99.90
21487;DHT22;10905;50.822;4.336;2022-07-23T08:50:57;22.10;99.90
21487;DHT22;10905;50.822;4.336;2022-07-23T08:53:23;22.10;99.90
21487;DHT22;10905;50.822;4.336;2022-07-23T08:55:56;22.10;99.90
21487;DHT22;10905;50.822;4.336;2022-07-23T08:58:21;22.20;99.90
21487;DHT22;10905;50.822;4.336;2022-07-23T09:00:47;22.20;99.90
21487;DHT22;10905;50.822;4.336;2022-07-23T09:05:41;22.60;99.90
21487;DHT22;10905;50.822;4.336;2022-07-23T09:10:42;22.90;99.90
21487;DHT22;10905;50.822;4.336;2022-07-23T09:15:50;22.80;99.90
21487;DHT22;10905;50.822;4.336;2022-07-23T09:18:15;23.00;99.90
21487;DHT22;10905;50.822;4.336;2022-07-23T09:20:41;22.90;99.90
21487;DHT22;10905;50.822;4.336;2022-07-23T09:23:06;22.90;99.90
21487;DHT22;10905;50.822;4.336;2022-07-23T09:25:32;23.00;99.90
21487;DHT22;10905;50.822;4.336;2022-07-23T09:27:58;23.10;99.90
21487;DHT22;10905;50.822;4.336;2022-07-23T09:30:29;23.40;99.90
21487;DHT22;10905;50.822;4.336;2022-07-23T09:33:14;23.40;99.90
21487;DHT22;10905;50.822;4.336;2022-07-23T09:38:12;23.20;99.90
21487;DHT22;10905;50.822;4.336;2022-07-23T09:40:38;23.40;99.90
21487;DHT22;10905;50.822;4.336;2022-07-23T09:43:03;23.50;99.90
21487;DHT22;10905;50.822;4.336;2022-07-23T09:45:29;23.50;99.90
21487;DHT22;10905;50.822;4.336;2022-07-23T09:48:10;23.80;99.90
21487;DHT22;10905;50.822;4.336;2022-07-23T09:50:36;23.80;99.90
21487;DHT22;10905;50.822;4.336;2022-07-23T09:53:02;23.50;99.90
21487;DHT22;10905;50.822;4.336;2022-07-23T09:55:31;23.70;99.90
21487;DHT22;10905;50.822;4.336;2022-07-23T09:58:05;24.00;99.90
21487;DHT22;10905;50.822;4.336;2022-07-23T10:00:38;24.10;99.90
21487;DHT22;10905;50.822;4.336;2022-07-23T10:03:03;23.80;99.90
21487;DHT22;10905;50.822;4.336;2022-07-23T10:05:30;23.80;99.90
21487;DHT22;10905;50.822;4.336;2022-07-23T10:07:55;23.80;99.90
21487;DHT22;10905;50.822;4.336;2022-07-23T10:10:23;23.90;99.90
21487;DHT22;10905;50.822;4.336;2022-07-23T10:12:49;24.00;99.90
21487;DHT22;10905;50.822;4.336;2022-07-23T10:15:20;24.10;99.90
21487;DHT22;10905;50.822;4.336;2022-07-23T10:17:47;24.20;99.90
21487;DHT22;10905;50.822;4.336;2022-07-23T10:20:14;24.20;99.90
21487;DHT22;10905;50.822;4.336;2022-07-23T10:22:40;24.30;99.90
21487;DHT22;10905;50.822;4.336;2022-07-23T10:38:25;24.40;99.90
21487;DHT22;10905;50.822;4.336;2022-07-23T10:40:53;24.50;99.90
21487;DHT22;10905;50.822;4.336;2022-07-23T10:43:19;24.60;99.90
21487;DHT22;10905;50.822;4.336;2022-07-23T10:45:45;24.70;99.90
21487;DHT22;10905;50.822;4.336;2022-07-23T10:48:17;24.60;99.90
21487;DHT22;10905;50.822;4.336;2022-07-23T10:50:44;24.40;99.90
21487;DHT22;10905;50.822;4.336;2022-07-23T10:53:11;24.30;99.90
21487;DHT22;10905;50.822;4.336;2022-07-23T10:58:04;24.40;99.90
21487;DHT22;10905;50.822;4.336;2022-07-23T11:00:30;24.50;99.90
21487;DHT22;10905;50.822;4.336;2022-07-23T11:02:57;24.40;99.90
21487;DHT22;10905;50.822;4.336;2022-07-23T11:05:25;24.50;99.90
21487;DHT22;10905;50.822;4.336;2022-07-23T11:37:04;26.10;99.90
21487;DHT22;10905;50.822;4.336;2022-07-23T11:39:30;26.00;99.90
21487;DHT22;10905;50.822;4.336;2022-07-23T11:41:56;26.10;99.90
21487;DHT22;10905;50.822;4.336;2022-07-23T11:47:04;26.20;99.90
21487;DHT22;10905;50.822;4.336;2022-07-23T11:49:30;26.50;99.90
21487;DHT22;10905;50.822;4.336;2022-07-23T11:52:05;26.50;99.90
21487;DHT22;10905;50.822;4.336;2022-07-23T11:54:31;26.30;99.90
21487;DHT22;10905;50.822;4.336;2022-07-23T11:56:57;26.40;99.90
21487;DHT22;10905;50.822;4.336;2022-07-23T11:59:24;26.50;99.90
21487;DHT22;10905;50.822;4.336;2022-07-23T12:01:56;26.60;99.90
21487;DHT22;10905;50.822;4.336;2022-07-23T12:04:23;26.30;99.90
21487;DHT22;10905;50.822;4.336;2022-07-23T12:06:49;26.20;99.90
21487;DHT22;10905;50.822;4.336;2022-07-23T12:09:14;26.20;99.90
21487;DHT22;10905;50.822;4.336;2022-07-23T12:11:55;26.40;99.90
21487;DHT22;10905;50.822;4.336;2022-07-23T12:14:21;26.50;99.90
21487;DHT22;10905;50.822;4.336;2022-07-23T12:16:46;26.50;99.90
21487;DHT22;10905;50.822;4.336;2022-07-23T12:19:12;26.40;99.90
21487;DHT22;10905;50.822;4.336;2022-07-23T12:21:38;26.30;99.90
21487;DHT22;10905;50.822;4.336;2022-07-23T12:24:07;26.50;99.90
21487;DHT22;10905;50.822;4.336;2022-07-23T12:26:33;26.90;99.90
21487;DHT22;10905;50.822;4.336;2022-07-23T12:28:58;26.90;99.90
21487;DHT22;10905;50.822;4.336;2022-07-23T12:31:27;27.00;99.90
21487;DHT22;10905;50.822;4.336;2022-07-23T12:33:52;26.70;99.90
21487;DHT22;10905;50.822;4.336;2022-07-23T12:36:18;26.80;99.90
21487;DHT22;10905;50.822;4.336;2022-07-23T12:38:46;26.60;99.90
21487;DHT22;10905;50.822;4.336;2022-07-23T12:41:12;26.90;99.90
21487;DHT22;10905;50.822;4.336;2022-07-23T12:43:43;27.00;99.90
21487;DHT22;10905;50.822;4.336;2022-07-23T12:46:16;27.10;99.90
21487;DHT22;10905;50.822;4.336;2022-07-23T12:53:46;27.70;99.90
21487;DHT22;10905;50.822;4.336;2022-07-23T12:56:14;27.90;99.90
21487;DHT22;10905;50.822;4.336;2022-07-23T13:01:06;27.70;99.90
21487;DHT22;10905;50.822;4.336;2022-07-23T13:03:33;27.50;99.90
21487;DHT22;10905;50.822;4.336;2022-07-23T13:05:59;27.30;99.90
21487;DHT22;10905;50.822;4.336;2022-07-23T13:08:25;27.10;99.90
21487;DHT22;10905;50.822;4.336;2022-07-23T13:10:50;27.30;99.90
21487;DHT22;10905;50.822;4.336;2022-07-23T13:13:20;27.50;99.90
21487;DHT22;10905;50.822;4.336;2022-07-23T13:15:47;27.30;99.90
21487;DHT22;10905;50.822;4.336;2022-07-23T13:18:12;27.40;99.90
21487;DHT22;10905;50.822;4.336;2022-07-23T13:20:38;27.40;99.90
21487;DHT22;10905;50.822;4.336;2022-07-23T13:23:05;27.20;99.90
21487;DHT22;10905;50.822;4.336;2022-07-23T13:25:31;27.40;99.90
21487;DHT22;10905;50.822;4.336;2022-07-23T13:27:56;27.50;99.90
21487;DHT22;10905;50.822;4.336;2022-07-23T13:30:22;27.50;99.80
21487;DHT22;10905;50.822;4.336;2022-07-23T13:32:48;27.60;99.80
21487;DHT22;10905;50.822;4.336;2022-07-23T13:35:14;27.80;99.20
21487;DHT22;10905;50.822;4.336;2022-07-23T13:37:39;27.90;99.90
21487;DHT22;10905;50.822;4.336;2022-07-23T13:40:05;28.20;99.30
21487;DHT22;10905;50.822;4.336;2022-07-23T13:42:31;28.60;98.50
21487;DHT22;10905;50.822;4.336;2022-07-23T13:44:56;28.80;99.10
21487;DHT22;10905;50.822;4.336;2022-07-23T13:47:22;29.20;98.60
21487;DHT22;10905;50.822;4.336;2022-07-23T13:49:47;29.20;97.60
21487;DHT22;10905;50.822;4.336;2022-07-23T13:52:13;29.30;96.90
21487;DHT22;10905;50.822;4.336;2022-07-23T13:54:38;29.20;97.60
21487;DHT22;10905;50.822;4.336;2022-07-23T13:57:04;29.20;98.30
21487;DHT22;10905;50.822;4.336;2022-07-23T13:59:29;29.30;97.10
21487;DHT22;10905;50.822;4.336;2022-07-23T14:01:55;29.10;97.10
21487;DHT22;10905;50.822;4.336;2022-07-23T14:04:21;29.30;97.00
21487;DHT22;10905;50.822;4.336;2022-07-23T14:06:46;29.00;97.80
21487;DHT22;10905;50.822;4.336;2022-07-23T14:09:12;29.10;97.30
21487;DHT22;10905;50.822;4.336;2022-07-23T14:11:38;29.20;97.10
21487;DHT22;10905;50.822;4.336;2022-07-23T14:14:04;29.10;97.90
21487;DHT22;10905;50.822;4.336;2022-07-23T14:16:29;29.10;97.50
21487;DHT22;10905;50.822;4.336;2022-07-23T14:18:55;28.90;98.40
21487;DHT22;10905;50.822;4.336;2022-07-23T14:21:21;28.70;97.90
21487;DHT22;10905;50.822;4.336;2022-07-23T14:23:46;28.90;97.80
21487;DHT22;10905;50.822;4.336;2022-07-23T14:26:12;29.10;96.60
21487;DHT22;10905;50.822;4.336;2022-07-23T14:28:38;29.20;97.60
21487;DHT22;10905;50.822;4.336;2022-07-23T14:31:03;29.10;97.40
21487;DHT22;10905;50.822;4.336;2022-07-23T14:33:29;29.10;96.70
21487;DHT22;10905;50.822;4.336;2022-07-23T14:35:54;29.30;96.70
21487;DHT22;10905;50.822;4.336;2022-07-23T14:38:20;29.30;96.20
21487;DHT22;10905;50.822;4.336;2022-07-23T14:40:45;29.40;96.40
21487;DHT22;10905;50.822;4.336;2022-07-23T14:43:11;29.20;96.60
21487;DHT22;10905;50.822;4.336;2022-07-23T14:45:36;29.30;96.60
21487;DHT22;10905;50.822;4.336;2022-07-23T14:48:02;29.40;96.10
21487;DHT22;10905;50.822;4.336;2022-07-23T14:50:28;29.30;96.20
21487;DHT22;10905;50.822;4.336;2022-07-23T14:52:54;29.10;96.10
21487;DHT22;10905;50.822;4.336;2022-07-23T14:55:19;28.70;96.50
21487;DHT22;10905;50.822;4.336;2022-07-23T14:57:45;29.10;95.70
21487;DHT22;10905;50.822;4.336;2022-07-23T15:00:11;29.30;96.50
21487;DHT22;10905;50.822;4.336;2022-07-23T15:02:36;29.20;96.00
21487;DHT22;10905;50.822;4.336;2022-07-23T15:05:02;29.50;96.00
21487;DHT22;10905;50.822;4.336;2022-07-23T15:07:28;29.60;95.00
21487;DHT22;10905;50.822;4.336;2022-07-23T15:09:55;29.40;95.60
21487;DHT22;10905;50.822;4.336;2022-07-23T15:12:21;29.40;95.70
21487;DHT22;10905;50.822;4.336;2022-07-23T15:14:46;29.40;96.20
21487;DHT22;10905;50.822;4.336;2022-07-23T15:17:12;29.50;95.70
21487;DHT22;10905;50.822;4.336;2022-07-23T15:19:37;29.80;95.40
21487;DHT22;10905;50.822;4.336;2022-07-23T15:22:03;29.50;95.00
21487;DHT22;10905;50.822;4.336;2022-07-23T15:24:48;29.60;95.30
21487;DHT22;10905;50.822;4.336;2022-07-23T15:27:14;29.50;95.80
21487;DHT22;10905;50.822;4.336;2022-07-23T15:29:39;29.70;95.00
21487;DHT22;10905;50.822;4.336;2022-07-23T15:32:05;29.70;94.30
21487;DHT22;10905;50.822;4.336;2022-07-23T15:34:31;29.60;94.70
21487;DHT22;10905;50.822;4.336;2022-07-23T15:36:59;29.60;95.20
21487;DHT22;10905;50.822;4.336;2022-07-23T15:39:24;29.90;94.30
21487;DHT22;10905;50.822;4.336;2022-07-23T15:41:50;29.80;95.30
21487;DHT22;10905;50.822;4.336;2022-07-23T15:44:15;29.90;94.00
21487;DHT22;10905;50.822;4.336;2022-07-23T15:46:41;29.90;94.40
21487;DHT22;10905;50.822;4.336;2022-07-23T15:49:06;29.80;94.10
21487;DHT22;10905;50.822;4.336;2022-07-23T15:51:32;29.40;94.80
21487;DHT22;10905;50.822;4.336;2022-07-23T15:53:58;29.20;94.70
21487;DHT22;10905;50.822;4.336;2022-07-23T15:56:23;29.40;95.40
21487;DHT22;10905;50.822;4.336;2022-07-23T15:58:49;29.40;95.90
21487;DHT22;10905;50.822;4.336;2022-07-23T16:01:14;29.80;94.60
21487;DHT22;10905;50.822;4.336;2022-07-23T16:03:40;29.60;94.50
21487;DHT22;10905;50.822;4.336;2022-07-23T16:06:06;29.20;94.90
21487;DHT22;10905;50.822;4.336;2022-07-23T16:08:31;29.10;95.40
21487;DHT22;10905;50.822;4.336;2022-07-23T16:10:57;29.00;95.40
21487;DHT22;10905;50.822;4.336;2022-07-23T16:13:24;29.10;95.70
21487;DHT22;10905;50.822;4.336;2022-07-23T16:15:49;29.40;95.10
21487;DHT22;10905;50.822;4.336;2022-07-23T16:18:15;29.60;95.00
21487;DHT22;10905;50.822;4.336;2022-07-23T16:20:41;29.60;94.80
21487;DHT22;10905;50.822;4.336;2022-07-23T16:23:07;29.70;95.10
21487;DHT22;10905;50.822;4.336;2022-07-23T16:25:33;29.60;94.80
21487;DHT22;10905;50.822;4.336;2022-07-23T16:27:59;29.70;94.60